sensor_id;sensor_type;location;lat;lon;timestamp;temperature;humidity
5617;DHT22;2830;50.656;7.568;2022-11-04T00:02:02;10.00;99.90
5617;DHT22;2830;50.656;7.568;2022-11-04T00:04:29;10.00;99.90
5617;DHT22;2830;50.656;7.568;2022-11-04T00:06:56;10.00;99.90
5617;DHT22;2830;50.656;7.568;2022-11-04T00:09:26;9.90;99.90
5617;DHT22;2830;50.656;7.568;2022-11-04T00:11:54;9.90;99.90
5617;DHT22;2830;50.656;7.568;2022-11-04T00:14:39;9.80;99.90
5617;DHT22;2830;50.656;7.568;2022-11-04T00:17:10;9.80;99.90
5617;DHT22;2830;50.656;7.568;2022-11-04T00:19:49;9.80;99.90
5617;DHT22;2830;50.656;7.568;2022-11-04T00:22:36;9.80;99.90
5617;DHT22;2830;50.656;7.568;2022-11-04T00:25:21;9.80;99.90
5617;DHT22;2830;50.656;7.568;2022-11-04T00:30:59;9.70;99.90
5617;DHT22;2830;50.656;7.568;2022-11-04T00:33:48;9.70;99.90
5617;DHT22;2830;50.656;7.568;2022-11-04T00:36:15;9.60;99.90
5617;DHT22;2830;50.656;7.568;2022-11-04T00:38:42;9.50;99.90
5617;DHT22;2830;50.656;7.568;2022-11-04T00:41:09;9.50;99.90
5617;DHT22;2830;50.656;7.568;2022-11-04T00:44:00;9.50;99.90
5617;DHT22;2830;50.656;7.568;2022-11-04T00:46:29;9.50;99.90
5617;DHT22;2830;50.656;7.568;2022-11-04T00:48:56;9.50;99.90
5617;DHT22;2830;50.656;7.568;2022-11-04T00:51:23;9.50;99.90
5617;DHT22;2830;50.656;7.568;2022-11-04T00:53:50;9.50;99.90
5617;DHT22;2830;50.656;7.568;2022-11-04T00:56:17;9.40;99.90
5617;DHT22;2830;50.656;7.568;2022-11-04T00:58:44;9.40;99.90
5617;DHT22;2830;50.656;7.568;2022-11-04T01:01:12;9.40;99.90
5617;DHT22;2830;50.656;7.568;2022-11-04T01:03:49;9.40;99.90
5617;DHT22;2830;50.656;7.568;2022-11-04T01:06:17;9.40;99.90
5617;DHT22;2830;50.656;7.568;2022-11-04T01:08:44;9.30;99.90
5617;DHT22;2830;50.656;7.568;2022-11-04T01:11:12;9.20;99.90
5617;DHT22;2830;50.656;7.568;2022-11-04T01:13:40;9.20;99.90
5617;DHT22;2830;50.656;7.568;2022-11-04T01:16:09;9.20;99.90
5617;DHT22;2830;50.656;7.568;2022-11-04T01:18:37;9.10;99.90
5617;DHT22;2830;50.656;7.568;2022-11-04T01:21:05;9.00;99.90
5617;DHT22;2830;50.656;7.568;2022-11-04T01:23:35;8.90;99.90
5617;DHT22;2830;50.656;7.568;2022-11-04T01:26:07;8.80;99.90
5617;DHT22;2830;50.656;7.568;2022-11-04T01:28:33;8.80;99.90
5617;DHT22;2830;50.656;7.568;2022-11-04T01:31:11;8.80;99.90
5617;DHT22;2830;50.656;7.568;2022-11-04T01:33:38;8.70;99.90
5617;DHT22;2830;50.656;7.568;2022-11-04T01:36:06;8.60;99.90
5617;DHT22;2830;50.656;7.568;2022-11-04T01:38:34;8.60;99.90
5617;DHT22;2830;50.656;7.568;2022-11-04T01:41:03;8.60;99.90
5617;DHT22;2830;50.656;7.568;2022-11-04T01:43:48;8.60;99.90
5617;DHT22;2830;50.656;7.568;2022-11-04T01:48:48;8.50;99.90
5617;DHT22;2830;50.656;7.568;2022-11-04T01:51:16;8.30;99.90
5617;DHT22;2830;50.656;7.568;2022-11-04T01:53:43;8.20;99.90
5617;DHT22;2830;50.656;7.568;2022-11-04T01:56:11;8.00;99.90
5617;DHT22;2830;50.656;7.568;2022-11-04T01:58:45;8.00;99.90
5617;DHT22;2830;50.656;7.568;2022-11-04T02:01:13;7.80;99.90
5617;DHT22;2830;50.656;7.568;2022-11-04T02:03:48;7.70;99.90
5617;DHT22;2830;50.656;7.568;2022-11-04T02:06:18;7.60;99.90
5617;DHT22;2830;50.656;7.568;2022-11-04T02:08:45;7.40;99.90
5617;DHT22;2830;50.656;7.568;2022-11-04T02:11:12;7.40;99.90
5617;DHT22;2830;50.656;7.568;2022-11-04T02:14:00;7.30;99.90
5617;DHT22;2830;50.656;7.568;2022-11-04T02:16:41;7.30;99.90
5617;DHT22;2830;50.656;7.568;2022-11-04T02:28:17;7.00;99.90
5617;DHT22;2830;50.656;7.568;2022-11-04T02:31:40;7.00;99.90
5617;DHT22;2830;50.656;7.568;2022-11-04T02:34:21;6.90;99.90
5617;DHT22;2830;50.656;7.568;2022-11-04T02:37:05;6.80;99.90
5617;DHT22;2830;50.656;7.568;2022-11-04T02:39:50;6.80;99.90
5617;DHT22;2830;50.656;7.568;2022-11-04T02:42:29;6.70;99.90
5617;DHT22;2830;50.656;7.568;2022-11-04T02:45:26;6.70;99.90
5617;DHT22;2830;50.656;7.568;2022-11-04T02:48:09;6.60;99.90
5617;DHT22;2830;50.656;7.568;2022-11-04T02:50:48;6.50;99.90
5617;DHT22;2830;50.656;7.568;2022-11-04T02:53:25;6.50;99.90
5617;DHT22;2830;50.656;7.568;2022-11-04T02:55:55;6.50;99.90
5617;DHT22;2830;50.656;7.568;2022-11-04T02:58:30;6.40;99.90
5617;DHT22;2830;50.656;7.568;2022-11-04T03:01:01;6.30;99.90
5617;DHT22;2830;50.656;7.568;2022-11-04T03:03:44;6.20;99.90
5617;DHT22;2830;50.656;7.568;2022-11-04T03:06:12;6.20;99.90
5617;DHT22;2830;50.656;7.568;2022-11-04T03:08:44;6.10;99.90
5617;DHT22;2830;50.656;7.568;2022-11-04T03:11:15;6.10;99.90
5617;DHT22;2830;50.656;7.568;2022-11-04T03:14:09;6.00;99.90
5617;DHT22;2830;50.656;7.568;2022-11-04T03:16:43;5.90;99.90
5617;DHT22;2830;50.656;7.568;2022-11-04T03:19:31;5.90;99.90
5617;DHT22;2830;50.656;7.568;2022-11-04T03:22:12;5.80;99.90
5617;DHT22;2830;50.656;7.568;2022-11-04T03:24:41;5.70;99.90
5617;DHT22;2830;50.656;7.568;2022-11-04T03:27:30;5.60;99.90
5617;DHT22;2830;50.656;7.568;2022-11-04T03:30:09;5.60;99.90
5617;DHT22;2830;50.656;7.568;2022-11-04T03:32:39;5.50;99.90
5617;DHT22;2830;50.656;7.568;2022-11-04T03:35:08;5.50;99.90
5617;DHT22;2830;50.656;7.568;2022-11-04T03:37:36;5.40;99.90
5617;DHT22;2830;50.656;7.568;2022-11-04T03:40:03;5.40;99.90
5617;DHT22;2830;50.656;7.568;2022-11-04T03:42:31;5.30;99.90
5617;DHT22;2830;50.656;7.568;2022-11-04T03:45:00;5.20;99.90
5617;DHT22;2830;50.656;7.568;2022-11-04T03:47:28;5.20;99.90
5617;DHT22;2830;50.656;7.568;2022-11-04T03:50:04;5.20;99.90
5617;DHT22;2830;50.656;7.568;2022-11-04T03:52:32;5.20;99.90
5617;DHT22;2830;50.656;7.568;2022-11-04T03:54:59;5.10;99.90
5617;DHT22;2830;50.656;7.568;2022-11-04T03:57:55;5.10;99.90
5617;DHT22;2830;50.656;7.568;2022-11-04T04:00:24;5.00;99.90
5617;DHT22;2830;50.656;7.568;2022-11-04T04:10:40;4.80;99.90
5617;DHT22;2830;50.656;7.568;2022-11-04T04:13:13;4.80;99.90
5617;DHT22;2830;50.656;7.568;2022-11-04T04:15:46;4.80;99.90
5617;DHT22;2830;50.656;7.568;2022-11-04T04:18:16;4.80;99.90
5617;DHT22;2830;50.656;7.568;2022-11-04T04:20:46;4.80;99.90
5617;DHT22;2830;50.656;7.568;2022-11-04T04:23:22;4.80;99.90
5617;DHT22;2830;50.656;7.568;2022-11-04T04:26:10;4.60;99.90
5617;DHT22;2830;50.656;7.568;2022-11-04T04:28:58;4.60;99.90
5617;DHT22;2830;50.656;7.568;2022-11-04T04:31:29;4.60;99.90
5617;DHT22;2830;50.656;7.568;2022-11-04T04:34:16;4.60;99.90
5617;DHT22;2830;50.656;7.568;2022-11-04T04:37:08;4.50;99.90
5617;DHT22;2830;50.656;7.568;2022-11-04T04:39:44;4.50;99.90
5617;DHT22;2830;50.656;7.568;2022-11-04T04:42:34;4.50;99.90
5617;DHT22;2830;50.656;7.568;2022-11-04T04:45:36;4.40;99.90
5617;DHT22;2830;50.656;7.568;2022-11-04T04:48:11;4.40;99.90
5617;DHT22;2830;50.656;7.568;2022-11-04T04:50:47;4.30;99.90
5617;DHT22;2830;50.656;7.568;2022-11-04T04:53:15;4.30;99.90
5617;DHT22;2830;50.656;7.568;2022-11-04T04:55:41;4.30;99.90
5617;DHT22;2830;50.656;7.568;2022-11-04T04:58:08;4.30;99.90
5617;DHT22;2830;50.656;7.568;2022-11-04T05:00:35;4.30;99.90
5617;DHT22;2830;50.656;7.568;2022-11-04T05:03:02;4.30;99.90
5617;DHT22;2830;50.656;7.568;2022-11-04T05:05:28;4.30;99.90
5617;DHT22;2830;50.656;7.568;2022-11-04T05:07:55;4.30;99.90
5617;DHT22;2830;50.656;7.568;2022-11-04T05:10:28;4.20;99.90
5617;DHT22;2830;50.656;7.568;2022-11-04T05:12:55;4.20;99.90
5617;DHT22;2830;50.656;7.568;2022-11-04T05:15:40;4.10;99.90
5617;DHT22;2830;50.656;7.568;2022-11-04T05:18:07;4.10;99.90
5617;DHT22;2830;50.656;7.568;2022-11-04T05:20:35;4.10;99.90
5617;DHT22;2830;50.656;7.568;2022-11-04T05:23:03;4.00;99.90
5617;DHT22;2830;50.656;7.568;2022-11-04T05:25:30;4.10;99.90
5617;DHT22;2830;50.656;7.568;2022-11-04T05:28:00;4.00;99.90
5617;DHT22;2830;50.656;7.568;2022-11-04T05:30:27;4.00;99.90
5617;DHT22;2830;50.656;7.568;2022-11-04T05:32:54;4.00;99.90
5617;DHT22;2830;50.656;7.568;2022-11-04T05:35:29;4.00;99.90
5617;DHT22;2830;50.656;7.568;2022-11-04T05:37:55;4.00;99.90
5617;DHT22;2830;50.656;7.568;2022-11-04T05:40:23;3.90;99.90
5617;DHT22;2830;50.656;7.568;2022-11-04T05:42:50;3.90;99.90
5617;DHT22;2830;50.656;7.568;2022-11-04T05:45:16;3.70;99.90
5617;DHT22;2830;50.656;7.568;2022-11-04T05:47:43;3.70;99.90
5617;DHT22;2830;50.656;7.568;2022-11-04T05:50:10;3.70;99.90
5617;DHT22;2830;50.656;7.568;2022-11-04T05:52:36;3.70;99.90
5617;DHT22;2830;50.656;7.568;2022-11-04T05:55:03;3.70;99.90
5617;DHT22;2830;50.656;7.568;2022-11-04T05:57:34;3.70;99.90
5617;DHT22;2830;50.656;7.568;2022-11-04T06:00:04;3.70;99.90
5617;DHT22;2830;50.656;7.568;2022-11-04T06:02:31;3.60;99.90
5617;DHT22;2830;50.656;7.568;2022-11-04T06:04:58;3.60;99.90
5617;DHT22;2830;50.656;7.568;2022-11-04T06:07:24;3.60;99.90
5617;DHT22;2830;50.656;7.568;2022-11-04T06:09:51;3.50;99.90
5617;DHT22;2830;50.656;7.568;2022-11-04T06:12:17;3.30;99.90
5617;DHT22;2830;50.656;7.568;2022-11-04T06:14:44;3.40;99.90
5617;DHT22;2830;50.656;7.568;2022-11-04T06:17:14;3.50;99.90
5617;DHT22;2830;50.656;7.568;2022-11-04T06:19:41;3.50;99.90
5617;DHT22;2830;50.656;7.568;2022-11-04T06:22:10;3.50;99.90
5617;DHT22;2830;50.656;7.568;2022-11-04T06:24:37;3.40;99.90
5617;DHT22;2830;50.656;7.568;2022-11-04T06:27:04;3.40;99.90
5617;DHT22;2830;50.656;7.568;2022-11-04T06:29:31;3.50;99.90
5617;DHT22;2830;50.656;7.568;2022-11-04T06:31:57;3.30;99.90
5617;DHT22;2830;50.656;7.568;2022-11-04T06:34:24;3.40;99.90
5617;DHT22;2830;50.656;7.568;2022-11-04T06:36:52;3.50;99.90
5617;DHT22;2830;50.656;7.568;2022-11-04T06:39:19;3.60;99.90
5617;DHT22;2830;50.656;7.568;2022-11-04T06:41:45;3.70;99.90
5617;DHT22;2830;50.656;7.568;2022-11-04T06:44:18;3.70;99.90
5617;DHT22;2830;50.656;7.568;2022-11-04T06:46:45;3.80;99.90
5617;DHT22;2830;50.656;7.568;2022-11-04T06:49:16;3.80;99.90
5617;DHT22;2830;50.656;7.568;2022-11-04T06:51:43;3.90;99.90
5617;DHT22;2830;50.656;7.568;2022-11-04T06:54:11;4.00;99.90
5617;DHT22;2830;50.656;7.568;2022-11-04T06:56:38;4.10;99.90
5617;DHT22;2830;50.656;7.568;2022-11-04T06:59:05;4.10;99.90
5617;DHT22;2830;50.656;7.568;2022-11-04T07:01:34;4.20;99.90
5617;DHT22;2830;50.656;7.568;2022-11-04T07:04:02;4.20;99.90
5617;DHT22;2830;50.656;7.568;2022-11-04T07:06:32;4.20;99.90
5617;DHT22;2830;50.656;7.568;2022-11-04T07:09:04;4.20;99.90
5617;DHT22;2830;50.656;7.568;2022-11-04T07:11:31;4.20;99.90
5617;DHT22;2830;50.656;7.568;2022-11-04T07:14:00;4.20;99.90
5617;DHT22;2830;50.656;7.568;2022-11-04T07:16:27;4.40;99.90
5617;DHT22;2830;50.656;7.568;2022-11-04T07:18:54;4.40;99.90
5617;DHT22;2830;50.656;7.568;2022-11-04T07:21:21;4.60;99.90
5617;DHT22;2830;50.656;7.568;2022-11-04T07:23:49;4.70;99.90
5617;DHT22;2830;50.656;7.568;2022-11-04T07:26:16;4.80;99.90
5617;DHT22;2830;50.656;7.568;2022-11-04T07:28:43;4.80;99.90
5617;DHT22;2830;50.656;7.568;2022-11-04T07:31:11;4.90;99.90
5617;DHT22;2830;50.656;7.568;2022-11-04T07:33:38;5.00;99.90
5617;DHT22;2830;50.656;7.568;2022-11-04T07:36:07;5.10;99.90
5617;DHT22;2830;50.656;7.568;2022-11-04T07:38:35;5.20;99.90
5617;DHT22;2830;50.656;7.568;2022-11-04T07:41:02;5.30;99.90
5617;DHT22;2830;50.656;7.568;2022-11-04T07:43:29;5.30;99.90
5617;DHT22;2830;50.656;7.568;2022-11-04T07:46:01;5.50;99.90
5617;DHT22;2830;50.656;7.568;2022-11-04T07:48:28;5.80;99.90
5617;DHT22;2830;50.656;7.568;2022-11-04T07:50:57;5.80;99.90
5617;DHT22;2830;50.656;7.568;2022-11-04T07:53:28;6.00;99.90
5617;DHT22;2830;50.656;7.568;2022-11-04T07:55:56;6.20;99.90
5617;DHT22;2830;50.656;7.568;2022-11-04T07:58:23;6.40;99.90
5617;DHT22;2830;50.656;7.568;2022-11-04T08:00:57;6.40;99.90
5617;DHT22;2830;50.656;7.568;2022-11-04T08:03:24;6.70;99.90
5617;DHT22;2830;50.656;7.568;2022-11-04T08:05:56;6.70;99.90
5617;DHT22;2830;50.656;7.568;2022-11-04T08:08:23;6.70;99.90
5617;DHT22;2830;50.656;7.568;2022-11-04T08:10:58;6.90;99.90
5617;DHT22;2830;50.656;7.568;2022-11-04T08:13:27;7.10;99.90
5617;DHT22;2830;50.656;7.568;2022-11-04T08:15:55;7.20;99.90
5617;DHT22;2830;50.656;7.568;2022-11-04T08:18:22;7.50;99.90
5617;DHT22;2830;50.656;7.568;2022-11-04T08:20:49;7.50;99.90
5617;DHT22;2830;50.656;7.568;2022-11-04T08:23:17;7.50;99.90
5617;DHT22;2830;50.656;7.568;2022-11-04T08:25:44;7.60;99.90
5617;DHT22;2830;50.656;7.568;2022-11-04T08:28:12;7.70;99.90
5617;DHT22;2830;50.656;7.568;2022-11-04T08:30:53;7.90;99.90
5617;DHT22;2830;50.656;7.568;2022-11-04T08:33:19;8.00;99.90
5617;DHT22;2830;50.656;7.568;2022-11-04T08:35:46;8.10;99.90
5617;DHT22;2830;50.656;7.568;2022-11-04T08:38:13;8.20;99.90
5617;DHT22;2830;50.656;7.568;2022-11-04T08:40:40;8.30;99.90
5617;DHT22;2830;50.656;7.568;2022-11-04T08:43:06;8.40;99.90
5617;DHT22;2830;50.656;7.568;2022-11-04T08:45:38;8.60;99.90
5617;DHT22;2830;50.656;7.568;2022-11-04T08:48:06;8.80;99.90
5617;DHT22;2830;50.656;7.568;2022-11-04T08:50:33;8.90;99.90
5617;DHT22;2830;50.656;7.568;2022-11-04T08:53:00;8.90;99.90
5617;DHT22;2830;50.656;7.568;2022-11-04T08:55:30;9.00;99.90
5617;DHT22;2830;50.656;7.568;2022-11-04T08:57:58;9.10;99.90
5617;DHT22;2830;50.656;7.568;2022-11-04T09:00:26;9.10;99.90
5617;DHT22;2830;50.656;7.568;2022-11-04T09:02:53;9.20;99.90
5617;DHT22;2830;50.656;7.568;2022-11-04T09:05:21;9.30;99.90
5617;DHT22;2830;50.656;7.568;2022-11-04T09:07:48;9.50;99.90
5617;DHT22;2830;50.656;7.568;2022-11-04T09:10:14;9.70;99.90
5617;DHT22;2830;50.656;7.568;2022-11-04T09:12:42;9.90;99.90
5617;DHT22;2830;50.656;7.568;2022-11-04T09:15:09;10.10;99.90
5617;DHT22;2830;50.656;7.568;2022-11-04T09:17:36;10.40;99.90
5617;DHT22;2830;50.656;7.568;2022-11-04T09:20:03;10.70;99.90
5617;DHT22;2830;50.656;7.568;2022-11-04T09:22:31;11.00;99.90
5617;DHT22;2830;50.656;7.568;2022-11-04T09:24:57;11.20;99.90
5617;DHT22;2830;50.656;7.568;2022-11-04T09:27:24;11.50;99.90
5617;DHT22;2830;50.656;7.568;2022-11-04T09:29:51;11.80;99.90
5617;DHT22;2830;50.656;7.568;2022-11-04T09:32:17;12.00;99.90
5617;DHT22;2830;50.656;7.568;2022-11-04T09:34:44;12.30;99.90
5617;DHT22;2830;50.656;7.568;2022-11-04T09:37:11;12.40;99.90
5617;DHT22;2830;50.656;7.568;2022-11-04T09:39:38;12.70;99.90
5617;DHT22;2830;50.656;7.568;2022-11-04T09:45:00;12.60;99.90
5617;DHT22;2830;50.656;7.568;2022-11-04T09:47:50;12.60;99.90
5617;DHT22;2830;50.656;7.568;2022-11-04T09:50:23;12.20;99.90
5617;DHT22;2830;50.656;7.568;2022-11-04T09:53:06;12.00;99.90
5617;DHT22;2830;50.656;7.568;2022-11-04T09:55:40;12.10;99.90
5617;DHT22;2830;50.656;7.568;2022-11-04T09:58:12;12.10;99.90
5617;DHT22;2830;50.656;7.568;2022-11-04T10:00:43;12.10;99.90
5617;DHT22;2830;50.656;7.568;2022-11-04T10:11:23;14.60;99.90
5617;DHT22;2830;50.656;7.568;2022-11-04T10:22:55;18.60;99.90
5617;DHT22;2830;50.656;7.568;2022-11-04T10:25:37;18.80;99.90
5617;DHT22;2830;50.656;7.568;2022-11-04T10:28:10;19.20;99.90
5617;DHT22;2830;50.656;7.568;2022-11-04T10:30:40;18.60;99.90
5617;DHT22;2830;50.656;7.568;2022-11-04T10:33:30;18.30;99.90
5617;DHT22;2830;50.656;7.568;2022-11-04T10:36:05;17.50;99.90
5617;DHT22;2830;50.656;7.568;2022-11-04T10:38:37;16.80;99.90
5617;DHT22;2830;50.656;7.568;2022-11-04T10:44:12;16.00;99.90
5617;DHT22;2830;50.656;7.568;2022-11-04T10:52:06;15.40;99.90
5617;DHT22;2830;50.656;7.568;2022-11-04T10:54:52;15.50;99.90
5617;DHT22;2830;50.656;7.568;2022-11-04T10:57:25;15.30;99.90
5617;DHT22;2830;50.656;7.568;2022-11-04T10:59:56;15.10;99.90
5617;DHT22;2830;50.656;7.568;2022-11-04T11:07:45;14.90;99.90
5617;DHT22;2830;50.656;7.568;2022-11-04T11:10:20;14.60;99.90
5617;DHT22;2830;50.656;7.568;2022-11-04T11:15:30;14.00;99.90
5617;DHT22;2830;50.656;7.568;2022-11-04T11:18:16;14.10;99.90
5617;DHT22;2830;50.656;7.568;2022-11-04T11:20:49;14.10;99.90
5617;DHT22;2830;50.656;7.568;2022-11-04T11:23:36;13.80;99.90
5617;DHT22;2830;50.656;7.568;2022-11-04T11:26:06;13.80;99.90
5617;DHT22;2830;50.656;7.568;2022-11-04T11:28:34;14.00;99.90
5617;DHT22;2830;50.656;7.568;2022-11-04T11:31:12;14.30;99.90
5617;DHT22;2830;50.656;7.568;2022-11-04T11:33:50;14.20;99.90
5617;DHT22;2830;50.656;7.568;2022-11-04T11:36:21;13.90;99.90
5617;DHT22;2830;50.656;7.568;2022-11-04T11:38:53;14.00;99.90
5617;DHT22;2830;50.656;7.568;2022-11-04T11:41:21;13.90;99.90
5617;DHT22;2830;50.656;7.568;2022-11-04T11:43:54;14.00;99.90
5617;DHT22;2830;50.656;7.568;2022-11-04T11:46:27;14.30;99.90
5617;DHT22;2830;50.656;7.568;2022-11-04T11:48:57;14.20;99.90
5617;DHT22;2830;50.656;7.568;2022-11-04T11:54:06;15.60;99.90
5617;DHT22;2830;50.656;7.568;2022-11-04T11:56:38;15.50;99.90
5617;DHT22;2830;50.656;7.568;2022-11-04T11:59:48;15.20;99.90
5617;DHT22;2830;50.656;7.568;2022-11-04T12:03:10;14.80;99.90
5617;DHT22;2830;50.656;7.568;2022-11-04T12:05:56;14.00;99.90
5617;DHT22;2830;50.656;7.568;2022-11-04T12:16:57;13.70;99.90
5617;DHT22;2830;50.656;7.568;2022-11-04T12:22:09;13.80;99.90
5617;DHT22;2830;50.656;7.568;2022-11-04T12:24:53;13.50;99.90
5617;DHT22;2830;50.656;7.568;2022-11-04T12:40:45;21.20;99.90
5617;DHT22;2830;50.656;7.568;2022-11-04T12:44:16;19.80;99.90
5617;DHT22;2830;50.656;7.568;2022-11-04T12:49:46;17.50;99.90
5617;DHT22;2830;50.656;7.568;2022-11-04T12:58:22;16.00;99.90
5617;DHT22;2830;50.656;7.568;2022-11-04T13:00:59;16.30;99.90
5617;DHT22;2830;50.656;7.568;2022-11-04T13:04:05;17.00;99.90
5617;DHT22;2830;50.656;7.568;2022-11-04T13:06:35;16.90;99.90
5617;DHT22;2830;50.656;7.568;2022-11-04T13:09:30;16.50;99.90
5617;DHT22;2830;50.656;7.568;2022-11-04T13:15:06;15.10;99.90
5617;DHT22;2830;50.656;7.568;2022-11-04T13:17:31;14.60;99.90
5617;DHT22;2830;50.656;7.568;2022-11-04T13:22:46;14.00;99.90
5617;DHT22;2830;50.656;7.568;2022-11-04T13:25:27;13.80;99.90
5617;DHT22;2830;50.656;7.568;2022-11-04T13:27:54;13.70;99.90
5617;DHT22;2830;50.656;7.568;2022-11-04T13:38:52;13.10;99.90
5617;DHT22;2830;50.656;7.568;2022-11-04T13:44:24;12.70;99.90
5617;DHT22;2830;50.656;7.568;2022-11-04T13:46:55;12.60;99.90
5617;DHT22;2830;50.656;7.568;2022-11-04T13:49:25;12.60;99.90
5617;DHT22;2830;50.656;7.568;2022-11-04T14:16:02;11.80;99.90
5617;DHT22;2830;50.656;7.568;2022-11-04T14:18:34;11.80;99.90
5617;DHT22;2830;50.656;7.568;2022-11-04T14:23:28;11.80;99.90
5617;DHT22;2830;50.656;7.568;2022-11-04T14:26:00;11.80;99.90
5617;DHT22;2830;50.656;7.568;2022-11-04T14:28:29;11.80;99.90
5617;DHT22;2830;50.656;7.568;2022-11-04T14:31:07;11.80;99.90
5617;DHT22;2830;50.656;7.568;2022-11-04T14:33:54;11.80;99.90
5617;DHT22;2830;50.656;7.568;2022-11-04T14:36:34;11.80;99.90
5617;DHT22;2830;50.656;7.568;2022-11-04T14:39:50;11.70;99.90
5617;DHT22;2830;50.656;7.568;2022-11-04T14:41:55;11.70;99.90
5617;DHT22;2830;50.656;7.568;2022-11-04T14:44:43;11.70;99.90
5617;DHT22;2830;50.656;7.568;2022-11-04T14:47:27;11.60;99.90
5617;DHT22;2830;50.656;7.568;2022-11-04T14:49:59;11.50;99.90
5617;DHT22;2830;50.656;7.568;2022-11-04T14:58:19;11.30;99.90
5617;DHT22;2830;50.656;7.568;2022-11-04T15:00:38;11.20;99.90
5617;DHT22;2830;50.656;7.568;2022-11-04T15:03:20;11.10;99.90
5617;DHT22;2830;50.656;7.568;2022-11-04T15:06:09;11.20;99.90
5617;DHT22;2830;50.656;7.568;2022-11-04T15:16:22;11.10;99.90
5617;DHT22;2830;50.656;7.568;2022-11-04T15:18:51;11.10;99.90
5617;DHT22;2830;50.656;7.568;2022-11-04T15:21:18;11.00;99.90
5617;DHT22;2830;50.656;7.568;2022-11-04T15:23:51;11.00;99.90
5617;DHT22;2830;50.656;7.568;2022-11-04T15:26:27;10.90;99.90
5617;DHT22;2830;50.656;7.568;2022-11-04T15:28:58;11.00;99.90
5617;DHT22;2830;50.656;7.568;2022-11-04T15:31:31;11.00;99.90
5617;DHT22;2830;50.656;7.568;2022-11-04T15:34:01;11.00;99.90
5617;DHT22;2830;50.656;7.568;2022-11-04T15:36:39;10.90;99.90
5617;DHT22;2830;50.656;7.568;2022-11-04T15:39:15;10.80;99.90
5617;DHT22;2830;50.656;7.568;2022-11-04T15:41:44;10.80;99.90
5617;DHT22;2830;50.656;7.568;2022-11-04T15:44:32;10.80;99.90
5617;DHT22;2830;50.656;7.568;2022-11-04T15:47:25;10.70;99.90
5617;DHT22;2830;50.656;7.568;2022-11-04T15:50:01;10.70;99.90
5617;DHT22;2830;50.656;7.568;2022-11-04T15:52:29;10.70;99.90
5617;DHT22;2830;50.656;7.568;2022-11-04T15:54:58;10.60;99.90
5617;DHT22;2830;50.656;7.568;2022-11-04T15:57:36;10.50;99.90
5617;DHT22;2830;50.656;7.568;2022-11-04T16:03:13;10.40;99.90
5617;DHT22;2830;50.656;7.568;2022-11-04T16:05:42;10.30;99.90
5617;DHT22;2830;50.656;7.568;2022-11-04T16:08:21;10.30;99.90
5617;DHT22;2830;50.656;7.568;2022-11-04T16:10:49;10.20;99.90
5617;DHT22;2830;50.656;7.568;2022-11-04T16:15:49;10.00;99.90
5617;DHT22;2830;50.656;7.568;2022-11-04T16:20:50;9.90;99.90
5617;DHT22;2830;50.656;7.568;2022-11-04T16:23:21;9.80;99.90
5617;DHT22;2830;50.656;7.568;2022-11-04T16:26:04;9.80;99.90
5617;DHT22;2830;50.656;7.568;2022-11-04T16:28:36;9.80;99.90
5617;DHT22;2830;50.656;7.568;2022-11-04T16:33:47;9.70;99.90
5617;DHT22;2830;50.656;7.568;2022-11-04T16:36:14;9.70;99.90
5617;DHT22;2830;50.656;7.568;2022-11-04T16:38:57;9.60;99.90
5617;DHT22;2830;50.656;7.568;2022-11-04T16:41:27;9.60;99.90
5617;DHT22;2830;50.656;7.568;2022-11-04T16:43:54;9.60;99.90
5617;DHT22;2830;50.656;7.568;2022-11-04T16:46:24;9.60;99.90
5617;DHT22;2830;50.656;7.568;2022-11-04T16:48:51;9.50;99.90
5617;DHT22;2830;50.656;7.568;2022-11-04T16:51:20;9.50;99.90
5617;DHT22;2830;50.656;7.568;2022-11-04T16:53:50;9.50;99.90
5617;DHT22;2830;50.656;7.568;2022-11-04T16:56:18;9.40;99.90
5617;DHT22;2830;50.656;7.568;2022-11-04T16:58:46;9.40;99.90
5617;DHT22;2830;50.656;7.568;2022-11-04T17:01:15;9.40;99.90
5617;DHT22;2830;50.656;7.568;2022-11-04T17:03:43;9.50;99.90
5617;DHT22;2830;50.656;7.568;2022-11-04T17:06:13;9.50;99.90
5617;DHT22;2830;50.656;7.568;2022-11-04T17:08:40;9.50;99.90
5617;DHT22;2830;50.656;7.568;2022-11-04T17:11:10;9.50;99.90
5617;DHT22;2830;50.656;7.568;2022-11-04T17:13:38;9.50;99.90
5617;DHT22;2830;50.656;7.568;2022-11-04T17:16:05;9.60;99.90
5617;DHT22;2830;50.656;7.568;2022-11-04T17:18:33;9.60;99.90
5617;DHT22;2830;50.656;7.568;2022-11-04T17:21:04;9.50;99.90
5617;DHT22;2830;50.656;7.568;2022-11-04T17:23:31;9.50;99.90
5617;DHT22;2830;50.656;7.568;2022-11-04T17:25:58;9.40;99.90
5617;DHT22;2830;50.656;7.568;2022-11-04T17:28:26;9.40;99.90
5617;DHT22;2830;50.656;7.568;2022-11-04T17:30:52;9.30;99.90
5617;DHT22;2830;50.656;7.568;2022-11-04T17:33:19;9.30;99.90
5617;DHT22;2830;50.656;7.568;2022-11-04T17:35:48;9.40;99.90
5617;DHT22;2830;50.656;7.568;2022-11-04T17:38:17;9.40;99.90
5617;DHT22;2830;50.656;7.568;2022-11-04T17:40:44;9.40;99.90
5617;DHT22;2830;50.656;7.568;2022-11-04T17:43:30;9.40;99.90
5617;DHT22;2830;50.656;7.568;2022-11-04T17:46:15;9.40;99.90
5617;DHT22;2830;50.656;7.568;2022-11-04T17:49:02;9.40;99.90
5617;DHT22;2830;50.656;7.568;2022-11-04T17:51:29;9.40;99.90
5617;DHT22;2830;50.656;7.568;2022-11-04T17:53:56;9.50;99.90
5617;DHT22;2830;50.656;7.568;2022-11-04T17:56:23;9.40;99.90
5617;DHT22;2830;50.656;7.568;2022-11-04T17:58:51;9.40;99.90
5617;DHT22;2830;50.656;7.568;2022-11-04T18:01:19;9.40;99.90
5617;DHT22;2830;50.656;7.568;2022-11-04T18:03:46;9.30;99.90
5617;DHT22;2830;50.656;7.568;2022-11-04T18:06:13;9.30;99.90
5617;DHT22;2830;50.656;7.568;2022-11-04T18:08:40;9.30;99.90
5617;DHT22;2830;50.656;7.568;2022-11-04T18:11:08;9.40;99.90
5617;DHT22;2830;50.656;7.568;2022-11-04T18:13:36;9.40;99.90
5617;DHT22;2830;50.656;7.568;2022-11-04T18:16:10;9.40;99.90
5617;DHT22;2830;50.656;7.568;2022-11-04T18:18:38;9.40;99.90
5617;DHT22;2830;50.656;7.568;2022-11-04T18:21:06;9.40;99.90
5617;DHT22;2830;50.656;7.568;2022-11-04T18:23:34;9.40;99.90
5617;DHT22;2830;50.656;7.568;2022-11-04T18:26:00;9.50;99.90
5617;DHT22;2830;50.656;7.568;2022-11-04T18:28:28;9.40;99.90
5617;DHT22;2830;50.656;7.568;2022-11-04T18:30:55;9.30;99.90
5617;DHT22;2830;50.656;7.568;2022-11-04T18:33:21;9.40;99.90
5617;DHT22;2830;50.656;7.568;2022-11-04T18:35:48;9.40;99.90
5617;DHT22;2830;50.656;7.568;2022-11-04T18:38:14;9.40;99.90
5617;DHT22;2830;50.656;7.568;2022-11-04T18:40:41;9.30;99.90
5617;DHT22;2830;50.656;7.568;2022-11-04T18:43:08;9.30;99.90
5617;DHT22;2830;50.656;7.568;2022-11-04T18:45:35;9.30;99.90
5617;DHT22;2830;50.656;7.568;2022-11-04T18:48:05;9.20;99.90
5617;DHT22;2830;50.656;7.568;2022-11-04T18:50:32;9.30;99.90
5617;DHT22;2830;50.656;7.568;2022-11-04T18:52:59;9.30;99.90
5617;DHT22;2830;50.656;7.568;2022-11-04T18:55:26;9.30;99.90
5617;DHT22;2830;50.656;7.568;2022-11-04T18:57:54;9.30;99.90
5617;DHT22;2830;50.656;7.568;2022-11-04T19:00:21;9.30;99.90
5617;DHT22;2830;50.656;7.568;2022-11-04T19:02:47;9.20;99.90
5617;DHT22;2830;50.656;7.568;2022-11-04T19:05:15;9.20;99.90
5617;DHT22;2830;50.656;7.568;2022-11-04T19:07:41;9.30;99.90
5617;DHT22;2830;50.656;7.568;2022-11-04T19:10:09;9.20;99.90
5617;DHT22;2830;50.656;7.568;2022-11-04T19:12:36;9.10;99.90
5617;DHT22;2830;50.656;7.568;2022-11-04T19:15:22;9.10;99.90
5617;DHT22;2830;50.656;7.568;2022-11-04T19:17:48;9.10;99.90
5617;DHT22;2830;50.656;7.568;2022-11-04T19:20:15;9.00;99.90
5617;DHT22;2830;50.656;7.568;2022-11-04T19:22:42;9.00;99.90
5617;DHT22;2830;50.656;7.568;2022-11-04T19:25:09;9.00;99.90
5617;DHT22;2830;50.656;7.568;2022-11-04T19:27:36;9.00;99.90